sensor_id;sensor_type;location;lat;lon;timestamp;P1;durP1;ratioP1;P2;durP2;ratioP2
20970;SDS011;10644;48.834;10.088;2023-07-13T00:01:47;8.20;;;2.90;;
20970;SDS011;10644;48.834;10.088;2023-07-13T00:04:15;7.90;;;2.70;;
20970;SDS011;10644;48.834;10.088;2023-07-13T00:06:44;11.17;;;3.30;;
20970;SDS011;10644;48.834;10.088;2023-07-13T00:09:13;7.87;;;3.17;;
20970;SDS011;10644;48.834;10.088;2023-07-13T00:11:40;7.83;;;2.73;;
20970;SDS011;10644;48.834;10.088;2023-07-13T00:14:06;5.63;;;2.90;;
20970;SDS011;10644;48.834;10.088;2023-07-13T00:16:33;8.23;;;3.63;;
20970;SDS011;10644;48.834;10.088;2023-07-13T00:19:03;9.20;;;3.40;;
20970;SDS011;10644;48.834;10.088;2023-07-13T00:21:28;15.77;;;5.00;;
20970;SDS011;10644;48.834;10.088;2023-07-13T00:23:54;10.40;;;4.63;;
20970;SDS011;10644;48.834;10.088;2023-07-13T00:26:19;11.30;;;4.73;;
20970;SDS011;10644;48.834;10.088;2023-07-13T00:28:45;10.33;;;3.60;;
20970;SDS011;10644;48.834;10.088;2023-07-13T00:31:11;6.13;;;2.77;;
20970;SDS011;10644;48.834;10.088;2023-07-13T00:33:37;5.20;;;2.37;;
20970;SDS011;10644;48.834;10.088;2023-07-13T00:36:05;6.07;;;2.60;;
20970;SDS011;10644;48.834;10.088;2023-07-13T00:38:30;5.67;;;2.23;;
20970;SDS011;10644;48.834;10.088;2023-07-13T00:40:56;8.30;;;2.80;;
20970;SDS011;10644;48.834;10.088;2023-07-13T00:43:22;8.10;;;2.30;;
20970;SDS011;10644;48.834;10.088;2023-07-13T00:48:15;4.03;;;2.10;;
20970;SDS011;10644;48.834;10.088;2023-07-13T00:50:45;7.63;;;3.17;;
20970;SDS011;10644;48.834;10.088;2023-07-13T00:53:15;4.60;;;2.30;;
20970;SDS011;10644;48.834;10.088;2023-07-13T00:55:41;6.97;;;2.30;;
20970;SDS011;10644;48.834;10.088;2023-07-13T00:58:07;9.33;;;2.70;;
20970;SDS011;10644;48.834;10.088;2023-07-13T01:00:33;9.77;;;2.63;;
20970;SDS011;10644;48.834;10.088;2023-07-13T01:03:01;6.00;;;2.03;;
20970;SDS011;10644;48.834;10.088;2023-07-13T01:05:29;13.13;;;2.83;;
20970;SDS011;10644;48.834;10.088;2023-07-13T01:07:57;8.93;;;2.80;;
20970;SDS011;10644;48.834;10.088;2023-07-13T01:10:22;4.00;;;2.27;;
20970;SDS011;10644;48.834;10.088;2023-07-13T01:12:48;9.23;;;2.23;;
20970;SDS011;10644;48.834;10.088;2023-07-13T01:18:15;13.17;;;2.30;;
20970;SDS011;10644;48.834;10.088;2023-07-13T01:21:02;14.33;;;2.80;;
20970;SDS011;10644;48.834;10.088;2023-07-13T01:23:29;5.17;;;1.87;;
20970;SDS011;10644;48.834;10.088;2023-07-13T01:25:56;6.70;;;1.90;;
20970;SDS011;10644;48.834;10.088;2023-07-13T01:28:22;9.80;;;1.90;;
20970;SDS011;10644;48.834;10.088;2023-07-13T01:30:52;6.87;;;2.00;;
20970;SDS011;10644;48.834;10.088;2023-07-13T01:33:19;4.40;;;2.10;;
20970;SDS011;10644;48.834;10.088;2023-07-13T01:35:44;7.77;;;2.43;;
20970;SDS011;10644;48.834;10.088;2023-07-13T01:38:11;3.83;;;2.03;;
20970;SDS011;10644;48.834;10.088;2023-07-13T01:40:39;7.43;;;2.50;;
20970;SDS011;10644;48.834;10.088;2023-07-13T01:43:04;7.70;;;2.10;;
20970;SDS011;10644;48.834;10.088;2023-07-13T01:45:30;4.33;;;2.07;;
20970;SDS011;10644;48.834;10.088;2023-07-13T01:47:56;7.13;;;2.10;;
20970;SDS011;10644;48.834;10.088;2023-07-13T01:50:22;16.73;;;3.30;;
20970;SDS011;10644;48.834;10.088;2023-07-13T01:52:48;8.43;;;2.30;;
20970;SDS011;10644;48.834;10.088;2023-07-13T01:55:13;6.60;;;1.97;;
20970;SDS011;10644;48.834;10.088;2023-07-13T01:57:39;8.13;;;1.90;;
20970;SDS011;10644;48.834;10.088;2023-07-13T02:00:04;5.03;;;1.97;;
20970;SDS011;10644;48.834;10.088;2023-07-13T02:02:31;8.60;;;2.10;;
20970;SDS011;10644;48.834;10.088;2023-07-13T02:04:59;11.03;;;2.57;;
20970;SDS011;10644;48.834;10.088;2023-07-13T02:07:25;8.83;;;2.63;;
20970;SDS011;10644;48.834;10.088;2023-07-13T02:09:50;8.27;;;2.50;;
20970;SDS011;10644;48.834;10.088;2023-07-13T02:12:18;8.70;;;2.17;;
20970;SDS011;10644;48.834;10.088;2023-07-13T02:14:44;4.60;;;1.77;;
20970;SDS011;10644;48.834;10.088;2023-07-13T02:17:09;6.23;;;2.13;;
20970;SDS011;10644;48.834;10.088;2023-07-13T02:19:35;7.77;;;2.70;;
20970;SDS011;10644;48.834;10.088;2023-07-13T02:22:03;17.83;;;3.17;;
20970;SDS011;10644;48.834;10.088;2023-07-13T02:24:28;5.90;;;1.97;;
20970;SDS011;10644;48.834;10.088;2023-07-13T02:26:53;6.70;;;1.80;;
20970;SDS011;10644;48.834;10.088;2023-07-13T02:29:21;3.67;;;1.90;;
20970;SDS011;10644;48.834;10.088;2023-07-13T02:31:47;7.33;;;2.37;;
20970;SDS011;10644;48.834;10.088;2023-07-13T02:34:13;6.00;;;2.27;;
20970;SDS011;10644;48.834;10.088;2023-07-13T02:36:41;5.67;;;2.40;;
20970;SDS011;10644;48.834;10.088;2023-07-13T02:39:06;4.73;;;2.10;;
20970;SDS011;10644;48.834;10.088;2023-07-13T02:41:34;6.23;;;2.50;;
20970;SDS011;10644;48.834;10.088;2023-07-13T02:43:59;6.03;;;2.27;;
20970;SDS011;10644;48.834;10.088;2023-07-13T02:46:32;12.10;;;2.73;;
20970;SDS011;10644;48.834;10.088;2023-07-13T02:48:58;7.77;;;2.27;;
20970;SDS011;10644;48.834;10.088;2023-07-13T02:51:24;7.73;;;2.90;;
20970;SDS011;10644;48.834;10.088;2023-07-13T02:53:49;9.67;;;3.10;;
20970;SDS011;10644;48.834;10.088;2023-07-13T02:56:15;8.70;;;2.67;;
20970;SDS011;10644;48.834;10.088;2023-07-13T02:58:42;8.47;;;2.30;;
20970;SDS011;10644;48.834;10.088;2023-07-13T03:01:10;12.07;;;2.40;;
20970;SDS011;10644;48.834;10.088;2023-07-13T03:03:36;6.97;;;2.30;;
20970;SDS011;10644;48.834;10.088;2023-07-13T03:06:02;4.63;;;2.20;;
20970;SDS011;10644;48.834;10.088;2023-07-13T03:08:30;5.50;;;2.20;;
20970;SDS011;10644;48.834;10.088;2023-07-13T03:10:59;8.43;;;2.83;;
20970;SDS011;10644;48.834;10.088;2023-07-13T03:13:28;6.93;;;2.47;;
20970;SDS011;10644;48.834;10.088;2023-07-13T03:15:54;9.07;;;2.60;;
20970;SDS011;10644;48.834;10.088;2023-07-13T03:18:19;8.13;;;2.30;;
20970;SDS011;10644;48.834;10.088;2023-07-13T03:20:45;12.00;;;2.70;;
20970;SDS011;10644;48.834;10.088;2023-07-13T03:23:10;6.13;;;2.50;;
20970;SDS011;10644;48.834;10.088;2023-07-13T03:25:35;4.27;;;2.00;;
20970;SDS011;10644;48.834;10.088;2023-07-13T03:28:03;8.77;;;2.60;;
20970;SDS011;10644;48.834;10.088;2023-07-13T03:30:31;7.23;;;2.50;;
20970;SDS011;10644;48.834;10.088;2023-07-13T03:32:56;8.10;;;2.70;;
20970;SDS011;10644;48.834;10.088;2023-07-13T03:35:21;4.07;;;1.93;;
20970;SDS011;10644;48.834;10.088;2023-07-13T03:37:49;10.77;;;2.47;;
20970;SDS011;10644;48.834;10.088;2023-07-13T03:40:16;6.37;;;2.50;;
20970;SDS011;10644;48.834;10.088;2023-07-13T03:42:41;11.57;;;2.87;;
20970;SDS011;10644;48.834;10.088;2023-07-13T03:45:07;25.73;;;4.73;;
20970;SDS011;10644;48.834;10.088;2023-07-13T03:47:35;30.07;;;4.80;;
20970;SDS011;10644;48.834;10.088;2023-07-13T03:50:01;23.37;;;4.40;;
20970;SDS011;10644;48.834;10.088;2023-07-13T03:52:26;31.43;;;5.37;;
20970;SDS011;10644;48.834;10.088;2023-07-13T03:54:51;23.03;;;4.20;;
20970;SDS011;10644;48.834;10.088;2023-07-13T03:57:19;19.40;;;4.10;;
20970;SDS011;10644;48.834;10.088;2023-07-13T03:59:45;23.23;;;4.23;;
20970;SDS011;10644;48.834;10.088;2023-07-13T04:02:12;18.00;;;3.73;;
20970;SDS011;10644;48.834;10.088;2023-07-13T04:04:40;18.13;;;3.53;;
20970;SDS011;10644;48.834;10.088;2023-07-13T04:07:05;35.77;;;5.97;;
20970;SDS011;10644;48.834;10.088;2023-07-13T04:09:33;24.23;;;4.57;;
20970;SDS011;10644;48.834;10.088;2023-07-13T04:11:58;24.90;;;4.73;;
20970;SDS011;10644;48.834;10.088;2023-07-13T04:14:24;22.97;;;3.47;;
20970;SDS011;10644;48.834;10.088;2023-07-13T04:16:49;18.83;;;3.70;;
20970;SDS011;10644;48.834;10.088;2023-07-13T04:19:14;17.07;;;3.83;;
20970;SDS011;10644;48.834;10.088;2023-07-13T04:21:40;20.67;;;4.00;;
20970;SDS011;10644;48.834;10.088;2023-07-13T04:24:05;31.50;;;5.07;;
20970;SDS011;10644;48.834;10.088;2023-07-13T04:26:31;19.93;;;4.17;;
20970;SDS011;10644;48.834;10.088;2023-07-13T04:28:57;18.97;;;3.60;;
20970;SDS011;10644;48.834;10.088;2023-07-13T04:31:22;21.77;;;4.37;;
20970;SDS011;10644;48.834;10.088;2023-07-13T04:33:48;21.23;;;3.83;;
20970;SDS011;10644;48.834;10.088;2023-07-13T04:36:15;12.57;;;2.93;;
20970;SDS011;10644;48.834;10.088;2023-07-13T04:38:42;27.13;;;4.00;;
20970;SDS011;10644;48.834;10.088;2023-07-13T04:41:08;20.80;;;4.07;;
20970;SDS011;10644;48.834;10.088;2023-07-13T04:43:34;28.57;;;5.33;;
20970;SDS011;10644;48.834;10.088;2023-07-13T04:46:04;36.07;;;5.97;;
20970;SDS011;10644;48.834;10.088;2023-07-13T04:48:31;24.87;;;4.17;;
20970;SDS011;10644;48.834;10.088;2023-07-13T04:50:57;19.03;;;4.00;;
20970;SDS011;10644;48.834;10.088;2023-07-13T04:53:23;29.13;;;4.33;;
20970;SDS011;10644;48.834;10.088;2023-07-13T04:55:49;32.53;;;4.77;;
20970;SDS011;10644;48.834;10.088;2023-07-13T04:58:14;21.63;;;3.70;;
20970;SDS011;10644;48.834;10.088;2023-07-13T05:00:42;29.50;;;4.13;;
20970;SDS011;10644;48.834;10.088;2023-07-13T05:03:07;31.53;;;3.73;;
20970;SDS011;10644;48.834;10.088;2023-07-13T05:05:33;36.00;;;5.00;;
20970;SDS011;10644;48.834;10.088;2023-07-13T05:07:59;29.80;;;4.20;;
20970;SDS011;10644;48.834;10.088;2023-07-13T05:10:24;24.93;;;3.80;;
20970;SDS011;10644;48.834;10.088;2023-07-13T05:12:52;26.20;;;4.07;;
20970;SDS011;10644;48.834;10.088;2023-07-13T05:15:17;20.80;;;3.63;;
20970;SDS011;10644;48.834;10.088;2023-07-13T05:17:46;24.37;;;3.77;;
20970;SDS011;10644;48.834;10.088;2023-07-13T05:20:12;28.10;;;4.50;;
20970;SDS011;10644;48.834;10.088;2023-07-13T05:22:38;18.43;;;3.63;;
20970;SDS011;10644;48.834;10.088;2023-07-13T05:25:06;34.70;;;5.13;;
20970;SDS011;10644;48.834;10.088;2023-07-13T05:27:35;29.07;;;4.57;;
20970;SDS011;10644;48.834;10.088;2023-07-13T05:30:06;31.70;;;4.57;;
20970;SDS011;10644;48.834;10.088;2023-07-13T05:32:35;48.80;;;7.47;;
20970;SDS011;10644;48.834;10.088;2023-07-13T05:35:01;34.90;;;5.20;;
20970;SDS011;10644;48.834;10.088;2023-07-13T05:37:26;31.47;;;5.00;;
20970;SDS011;10644;48.834;10.088;2023-07-13T05:39:51;31.47;;;4.33;;
20970;SDS011;10644;48.834;10.088;2023-07-13T05:42:17;22.30;;;3.80;;
20970;SDS011;10644;48.834;10.088;2023-07-13T05:44:42;27.60;;;4.83;;
20970;SDS011;10644;48.834;10.088;2023-07-13T05:47:10;28.13;;;4.87;;
20970;SDS011;10644;48.834;10.088;2023-07-13T05:49:35;30.57;;;5.03;;
20970;SDS011;10644;48.834;10.088;2023-07-13T05:52:00;66.37;;;29.70;;
20970;SDS011;10644;48.834;10.088;2023-07-13T05:54:26;31.47;;;7.77;;
20970;SDS011;10644;48.834;10.088;2023-07-13T05:56:51;38.07;;;7.40;;
20970;SDS011;10644;48.834;10.088;2023-07-13T05:59:17;47.40;;;7.20;;
20970;SDS011;10644;48.834;10.088;2023-07-13T06:01:43;29.83;;;6.43;;
20970;SDS011;10644;48.834;10.088;2023-07-13T06:04:08;34.67;;;7.30;;
20970;SDS011;10644;48.834;10.088;2023-07-13T06:06:34;24.77;;;5.80;;
20970;SDS011;10644;48.834;10.088;2023-07-13T06:08:59;29.67;;;5.40;;
20970;SDS011;10644;48.834;10.088;2023-07-13T06:11:25;29.97;;;5.53;;
20970;SDS011;10644;48.834;10.088;2023-07-13T06:13:52;23.40;;;4.53;;
20970;SDS011;10644;48.834;10.088;2023-07-13T06:16:18;24.00;;;4.73;;
20970;SDS011;10644;48.834;10.088;2023-07-13T06:18:43;28.67;;;4.63;;
20970;SDS011;10644;48.834;10.088;2023-07-13T06:21:11;28.23;;;4.60;;
20970;SDS011;10644;48.834;10.088;2023-07-13T06:23:40;34.07;;;4.93;;
20970;SDS011;10644;48.834;10.088;2023-07-13T06:26:06;19.80;;;3.83;;
20970;SDS011;10644;48.834;10.088;2023-07-13T06:28:32;25.27;;;4.43;;
20970;SDS011;10644;48.834;10.088;2023-07-13T06:30:59;31.83;;;4.97;;
20970;SDS011;10644;48.834;10.088;2023-07-13T06:33:24;20.87;;;4.33;;
20970;SDS011;10644;48.834;10.088;2023-07-13T06:35:50;24.60;;;4.80;;
20970;SDS011;10644;48.834;10.088;2023-07-13T06:38:15;25.53;;;4.67;;
20970;SDS011;10644;48.834;10.088;2023-07-13T06:40:41;27.80;;;5.47;;
20970;SDS011;10644;48.834;10.088;2023-07-13T06:43:06;26.13;;;4.80;;
20970;SDS011;10644;48.834;10.088;2023-07-13T06:45:35;29.13;;;5.10;;
20970;SDS011;10644;48.834;10.088;2023-07-13T06:48:07;30.23;;;5.73;;
20970;SDS011;10644;48.834;10.088;2023-07-13T06:50:33;40.87;;;6.77;;
20970;SDS011;10644;48.834;10.088;2023-07-13T06:52:58;30.93;;;5.37;;
20970;SDS011;10644;48.834;10.088;2023-07-13T06:55:24;22.50;;;4.60;;
20970;SDS011;10644;48.834;10.088;2023-07-13T06:57:50;25.23;;;4.97;;
20970;SDS011;10644;48.834;10.088;2023-07-13T07:00:16;26.07;;;4.83;;
20970;SDS011;10644;48.834;10.088;2023-07-13T07:02:44;33.93;;;5.60;;
20970;SDS011;10644;48.834;10.088;2023-07-13T07:05:09;29.13;;;4.83;;
20970;SDS011;10644;48.834;10.088;2023-07-13T07:07:34;23.37;;;5.03;;
20970;SDS011;10644;48.834;10.088;2023-07-13T07:10:03;24.47;;;4.57;;
20970;SDS011;10644;48.834;10.088;2023-07-13T07:12:28;25.50;;;4.93;;
20970;SDS011;10644;48.834;10.088;2023-07-13T07:14:54;28.23;;;5.60;;
20970;SDS011;10644;48.834;10.088;2023-07-13T07:17:19;26.27;;;4.53;;
20970;SDS011;10644;48.834;10.088;2023-07-13T07:19:45;21.73;;;3.90;;
20970;SDS011;10644;48.834;10.088;2023-07-13T07:22:10;27.00;;;4.60;;
20970;SDS011;10644;48.834;10.088;2023-07-13T07:24:35;25.57;;;4.70;;
20970;SDS011;10644;48.834;10.088;2023-07-13T07:27:01;19.73;;;4.20;;
20970;SDS011;10644;48.834;10.088;2023-07-13T07:29:26;39.07;;;6.30;;
20970;SDS011;10644;48.834;10.088;2023-07-13T07:31:54;20.97;;;4.63;;
20970;SDS011;10644;48.834;10.088;2023-07-13T07:34:20;21.87;;;4.33;;
20970;SDS011;10644;48.834;10.088;2023-07-13T07:36:45;25.50;;;4.57;;
20970;SDS011;10644;48.834;10.088;2023-07-13T07:39:11;32.60;;;5.53;;
20970;SDS011;10644;48.834;10.088;2023-07-13T07:41:36;34.17;;;5.63;;
20970;SDS011;10644;48.834;10.088;2023-07-13T07:44:02;29.90;;;5.60;;
20970;SDS011;10644;48.834;10.088;2023-07-13T07:46:28;22.90;;;7.37;;
20970;SDS011;10644;48.834;10.088;2023-07-13T07:48:54;26.80;;;4.80;;
20970;SDS011;10644;48.834;10.088;2023-07-13T07:51:21;39.30;;;6.73;;
20970;SDS011;10644;48.834;10.088;2023-07-13T07:53:46;25.10;;;4.57;;
20970;SDS011;10644;48.834;10.088;2023-07-13T07:56:12;23.87;;;5.20;;
20970;SDS011;10644;48.834;10.088;2023-07-13T07:58:38;19.33;;;4.63;;
20970;SDS011;10644;48.834;10.088;2023-07-13T08:01:04;23.27;;;4.80;;
20970;SDS011;10644;48.834;10.088;2023-07-13T08:03:31;25.63;;;5.20;;
20970;SDS011;10644;48.834;10.088;2023-07-13T08:05:56;18.93;;;4.37;;
20970;SDS011;10644;48.834;10.088;2023-07-13T08:08:21;35.37;;;6.13;;
20970;SDS011;10644;48.834;10.088;2023-07-13T08:10:47;33.93;;;6.20;;
20970;SDS011;10644;48.834;10.088;2023-07-13T08:13:12;48.70;;;6.97;;
20970;SDS011;10644;48.834;10.088;2023-07-13T08:15:40;32.43;;;6.07;;
20970;SDS011;10644;48.834;10.088;2023-07-13T08:18:05;24.73;;;4.60;;
20970;SDS011;10644;48.834;10.088;2023-07-13T08:20:32;30.33;;;4.73;;
20970;SDS011;10644;48.834;10.088;2023-07-13T08:23:00;26.13;;;4.87;;
20970;SDS011;10644;48.834;10.088;2023-07-13T08:25:27;33.30;;;5.40;;
20970;SDS011;10644;48.834;10.088;2023-07-13T08:27:53;36.13;;;5.47;;
20970;SDS011;10644;48.834;10.088;2023-07-13T08:30:20;28.80;;;5.57;;
20970;SDS011;10644;48.834;10.088;2023-07-13T08:32:46;42.77;;;6.17;;
20970;SDS011;10644;48.834;10.088;2023-07-13T08:35:11;22.67;;;4.37;;
20970;SDS011;10644;48.834;10.088;2023-07-13T08:37:38;26.37;;;4.53;;
20970;SDS011;10644;48.834;10.088;2023-07-13T08:40:04;26.17;;;5.07;;
20970;SDS011;10644;48.834;10.088;2023-07-13T08:42:31;39.53;;;6.33;;
20970;SDS011;10644;48.834;10.088;2023-07-13T08:45:06;27.70;;;5.07;;
20970;SDS011;10644;48.834;10.088;2023-07-13T08:47:54;23.87;;;4.77;;
20970;SDS011;10644;48.834;10.088;2023-07-13T08:50:31;31.50;;;6.10;;
20970;SDS011;10644;48.834;10.088;2023-07-13T08:53:01;27.67;;;5.40;;
20970;SDS011;10644;48.834;10.088;2023-07-13T08:55:32;32.23;;;5.63;;
20970;SDS011;10644;48.834;10.088;2023-07-13T08:58:12;23.40;;;4.37;;
20970;SDS011;10644;48.834;10.088;2023-07-13T09:00:52;14.27;;;3.53;;
20970;SDS011;10644;48.834;10.088;2023-07-13T09:03:57;20.90;;;4.93;;
20970;SDS011;10644;48.834;10.088;2023-07-13T09:06:34;18.63;;;3.80;;
20970;SDS011;10644;48.834;10.088;2023-07-13T09:17:10;22.27;;;4.50;;
20970;SDS011;10644;48.834;10.088;2023-07-13T09:19:43;25.43;;;5.33;;
20970;SDS011;10644;48.834;10.088;2023-07-13T09:22:17;21.93;;;3.80;;
20970;SDS011;10644;48.834;10.088;2023-07-13T09:27:24;18.93;;;3.80;;
20970;SDS011;10644;48.834;10.088;2023-07-13T09:30:03;24.60;;;4.17;;
20970;SDS011;10644;48.834;10.088;2023-07-13T09:32:48;32.20;;;4.37;;
20970;SDS011;10644;48.834;10.088;2023-07-13T09:35:19;29.53;;;4.40;;
20970;SDS011;10644;48.834;10.088;2023-07-13T09:37:46;42.40;;;5.33;;
20970;SDS011;10644;48.834;10.088;2023-07-13T09:40:28;24.27;;;3.90;;
20970;SDS011;10644;48.834;10.088;2023-07-13T09:43:01;27.43;;;3.77;;
20970;SDS011;10644;48.834;10.088;2023-07-13T09:45:30;29.97;;;4.27;;
20970;SDS011;10644;48.834;10.088;2023-07-13T09:47:59;29.03;;;3.97;;
20970;SDS011;10644;48.834;10.088;2023-07-13T09:50:28;29.10;;;4.27;;
20970;SDS011;10644;48.834;10.088;2023-07-13T09:52:54;21.53;;;3.97;;
20970;SDS011;10644;48.834;10.088;2023-07-13T09:55:28;29.57;;;4.33;;
20970;SDS011;10644;48.834;10.088;2023-07-13T10:00:53;31.67;;;4.80;;
20970;SDS011;10644;48.834;10.088;2023-07-13T10:03:24;16.70;;;3.00;;
20970;SDS011;10644;48.834;10.088;2023-07-13T10:05:57;21.30;;;4.03;;
20970;SDS011;10644;48.834;10.088;2023-07-13T10:08:31;24.77;;;5.93;;
20970;SDS011;10644;48.834;10.088;2023-07-13T10:11:02;36.97;;;5.13;;
20970;SDS011;10644;48.834;10.088;2023-07-13T10:13:44;15.50;;;2.90;;
20970;SDS011;10644;48.834;10.088;2023-07-13T10:16:17;18.20;;;3.27;;
20970;SDS011;10644;48.834;10.088;2023-07-13T10:21:10;27.77;;;4.27;;
20970;SDS011;10644;48.834;10.088;2023-07-13T10:23:50;27.43;;;4.30;;
20970;SDS011;10644;48.834;10.088;2023-07-13T10:26:22;22.77;;;3.53;;
20970;SDS011;10644;48.834;10.088;2023-07-13T10:28:53;23.47;;;3.83;;
20970;SDS011;10644;48.834;10.088;2023-07-13T10:31:22;25.50;;;3.83;;
20970;SDS011;10644;48.834;10.088;2023-07-13T10:33:51;27.77;;;4.13;;
20970;SDS011;10644;48.834;10.088;2023-07-13T10:36:23;31.47;;;4.63;;
20970;SDS011;10644;48.834;10.088;2023-07-13T10:38:54;39.07;;;4.60;;
20970;SDS011;10644;48.834;10.088;2023-07-13T10:41:25;41.07;;;5.33;;
20970;SDS011;10644;48.834;10.088;2023-07-13T10:43:55;42.20;;;4.93;;
20970;SDS011;10644;48.834;10.088;2023-07-13T10:46:23;26.90;;;7.73;;
20970;SDS011;10644;48.834;10.088;2023-07-13T10:48:57;18.23;;;3.20;;
20970;SDS011;10644;48.834;10.088;2023-07-13T10:51:27;38.43;;;4.60;;
20970;SDS011;10644;48.834;10.088;2023-07-13T10:56:42;20.83;;;3.83;;
20970;SDS011;10644;48.834;10.088;2023-07-13T10:59:12;35.37;;;4.73;;
20970;SDS011;10644;48.834;10.088;2023-07-13T11:01:41;18.60;;;3.60;;
20970;SDS011;10644;48.834;10.088;2023-07-13T11:04:12;17.57;;;2.93;;
20970;SDS011;10644;48.834;10.088;2023-07-13T11:06:38;20.40;;;2.93;;
20970;SDS011;10644;48.834;10.088;2023-07-13T11:22:44;34.13;;;5.70;;
20970;SDS011;10644;48.834;10.088;2023-07-13T11:27:45;30.07;;;4.30;;
20970;SDS011;10644;48.834;10.088;2023-07-13T11:33:03;26.43;;;4.23;;
20970;SDS011;10644;48.834;10.088;2023-07-13T11:35:40;31.60;;;4.43;;
20970;SDS011;10644;48.834;10.088;2023-07-13T11:38:22;36.93;;;5.40;;
20970;SDS011;10644;48.834;10.088;2023-07-13T11:40:54;19.10;;;3.27;;
20970;SDS011;10644;48.834;10.088;2023-07-13T11:43:20;20.20;;;3.33;;
20970;SDS011;10644;48.834;10.088;2023-07-13T11:45:50;16.60;;;3.33;;
20970;SDS011;10644;48.834;10.088;2023-07-13T11:48:23;13.73;;;2.80;;
20970;SDS011;10644;48.834;10.088;2023-07-13T11:51:03;20.00;;;2.97;;
20970;SDS011;10644;48.834;10.088;2023-07-13T11:53:38;16.43;;;2.80;;
20970;SDS011;10644;48.834;10.088;2023-07-13T11:56:06;26.63;;;3.87;;
20970;SDS011;10644;48.834;10.088;2023-07-13T11:58:32;25.13;;;4.03;;
20970;SDS011;10644;48.834;10.088;2023-07-13T12:00:59;31.00;;;4.53;;
20970;SDS011;10644;48.834;10.088;2023-07-13T12:03:29;25.17;;;3.57;;
20970;SDS011;10644;48.834;10.088;2023-07-13T12:08:23;32.07;;;5.27;;
20970;SDS011;10644;48.834;10.088;2023-07-13T12:10:55;19.10;;;3.90;;
20970;SDS011;10644;48.834;10.088;2023-07-13T12:13:22;19.03;;;3.20;;
20970;SDS011;10644;48.834;10.088;2023-07-13T12:15:47;33.40;;;4.60;;
20970;SDS011;10644;48.834;10.088;2023-07-13T12:18:15;19.33;;;3.13;;
20970;SDS011;10644;48.834;10.088;2023-07-13T12:20:43;28.43;;;3.80;;
20970;SDS011;10644;48.834;10.088;2023-07-13T12:23:14;26.40;;;4.03;;
20970;SDS011;10644;48.834;10.088;2023-07-13T12:25:49;24.73;;;3.60;;
20970;SDS011;10644;48.834;10.088;2023-07-13T12:28:31;23.80;;;4.23;;
20970;SDS011;10644;48.834;10.088;2023-07-13T12:31:01;35.57;;;5.17;;
20970;SDS011;10644;48.834;10.088;2023-07-13T12:33:28;22.07;;;3.80;;
20970;SDS011;10644;48.834;10.088;2023-07-13T12:35:54;43.90;;;6.10;;
20970;SDS011;10644;48.834;10.088;2023-07-13T12:38:20;27.17;;;3.97;;
20970;SDS011;10644;48.834;10.088;2023-07-13T12:40:48;32.53;;;4.20;;
20970;SDS011;10644;48.834;10.088;2023-07-13T12:43:16;23.20;;;3.40;;
20970;SDS011;10644;48.834;10.088;2023-07-13T12:45:58;22.03;;;3.37;;
20970;SDS011;10644;48.834;10.088;2023-07-13T12:48:28;27.03;;;4.00;;
20970;SDS011;10644;48.834;10.088;2023-07-13T12:50:54;23.80;;;3.90;;
20970;SDS011;10644;48.834;10.088;2023-07-13T12:53:22;31.47;;;6.33;;
20970;SDS011;10644;48.834;10.088;2023-07-13T12:55:54;28.10;;;4.90;;
20970;SDS011;10644;48.834;10.088;2023-07-13T12:58:26;23.77;;;4.53;;
20970;SDS011;10644;48.834;10.088;2023-07-13T13:00:58;25.37;;;4.10;;
20970;SDS011;10644;48.834;10.088;2023-07-13T13:08:28;22.33;;;4.90;;
20970;SDS011;10644;48.834;10.088;2023-07-13T13:10:54;31.37;;;5.20;;
20970;SDS011;10644;48.834;10.088;2023-07-13T13:13:20;21.83;;;4.60;;
20970;SDS011;10644;48.834;10.088;2023-07-13T13:15:46;80.57;;;23.47;;
20970;SDS011;10644;48.834;10.088;2023-07-13T13:18:16;83.23;;;22.73;;
20970;SDS011;10644;48.834;10.088;2023-07-13T13:20:43;97.93;;;27.03;;
20970;SDS011;10644;48.834;10.088;2023-07-13T13:23:15;105.77;;;28.77;;
20970;SDS011;10644;48.834;10.088;2023-07-13T13:25:45;49.83;;;13.00;;
20970;SDS011;10644;48.834;10.088;2023-07-13T13:28:14;51.73;;;13.27;;
20970;SDS011;10644;48.834;10.088;2023-07-13T13:30:41;34.53;;;7.03;;
20970;SDS011;10644;48.834;10.088;2023-07-13T13:33:12;143.37;;;42.13;;
20970;SDS011;10644;48.834;10.088;2023-07-13T13:35:42;24.00;;;5.00;;
20970;SDS011;10644;48.834;10.088;2023-07-13T13:38:14;102.87;;;23.70;;
20970;SDS011;10644;48.834;10.088;2023-07-13T13:40:42;46.30;;;11.10;;
20970;SDS011;10644;48.834;10.088;2023-07-13T13:43:20;67.27;;;17.67;;
20970;SDS011;10644;48.834;10.088;2023-07-13T13:45:54;56.77;;;14.07;;
20970;SDS011;10644;48.834;10.088;2023-07-13T13:48:33;33.07;;;7.57;;
20970;SDS011;10644;48.834;10.088;2023-07-13T13:51:01;40.40;;;8.23;;
20970;SDS011;10644;48.834;10.088;2023-07-13T13:53:37;51.73;;;12.37;;
20970;SDS011;10644;48.834;10.088;2023-07-13T13:56:03;39.13;;;8.03;;
20970;SDS011;10644;48.834;10.088;2023-07-13T13:58:29;34.37;;;6.33;;
20970;SDS011;10644;48.834;10.088;2023-07-13T14:00:57;28.63;;;4.83;;
20970;SDS011;10644;48.834;10.088;2023-07-13T14:03:23;32.77;;;7.37;;
20970;SDS011;10644;48.834;10.088;2023-07-13T14:05:49;28.60;;;5.27;;
20970;SDS011;10644;48.834;10.088;2023-07-13T14:08:18;43.67;;;5.57;;
20970;SDS011;10644;48.834;10.088;2023-07-13T14:10:48;25.10;;;4.60;;
20970;SDS011;10644;48.834;10.088;2023-07-13T14:15:51;28.80;;;4.87;;
20970;SDS011;10644;48.834;10.088;2023-07-13T14:18:17;45.53;;;5.17;;
20970;SDS011;10644;48.834;10.088;2023-07-13T14:20:46;35.60;;;4.77;;
20970;SDS011;10644;48.834;10.088;2023-07-13T14:23:13;35.67;;;4.97;;
20970;SDS011;10644;48.834;10.088;2023-07-13T14:25:43;38.43;;;5.17;;
20970;SDS011;10644;48.834;10.088;2023-07-13T14:28:26;29.00;;;4.07;;
20970;SDS011;10644;48.834;10.088;2023-07-13T14:30:53;37.33;;;4.33;;
20970;SDS011;10644;48.834;10.088;2023-07-13T14:33:22;35.63;;;5.10;;
20970;SDS011;10644;48.834;10.088;2023-07-13T14:35:49;37.73;;;4.10;;
20970;SDS011;10644;48.834;10.088;2023-07-13T14:38:15;27.90;;;3.57;;
20970;SDS011;10644;48.834;10.088;2023-07-13T14:40:44;24.80;;;3.63;;
20970;SDS011;10644;48.834;10.088;2023-07-13T14:43:11;26.87;;;3.70;;
20970;SDS011;10644;48.834;10.088;2023-07-13T14:45:38;27.03;;;3.90;;
20970;SDS011;10644;48.834;10.088;2023-07-13T14:48:16;21.40;;;3.70;;
20970;SDS011;10644;48.834;10.088;2023-07-13T14:50:44;34.80;;;4.37;;
20970;SDS011;10644;48.834;10.088;2023-07-13T14:53:11;34.37;;;4.53;;
20970;SDS011;10644;48.834;10.088;2023-07-13T14:55:37;20.63;;;2.97;;
20970;SDS011;10644;48.834;10.088;2023-07-13T14:58:02;41.80;;;4.80;;
20970;SDS011;10644;48.834;10.088;2023-07-13T15:00:28;48.40;;;5.97;;
20970;SDS011;10644;48.834;10.088;2023-07-13T15:02:54;36.23;;;5.37;;
20970;SDS011;10644;48.834;10.088;2023-07-13T15:05:23;36.60;;;4.80;;
20970;SDS011;10644;48.834;10.088;2023-07-13T15:07:55;48.47;;;5.30;;
20970;SDS011;10644;48.834;10.088;2023-07-13T15:10:27;40.60;;;5.20;;
20970;SDS011;10644;48.834;10.088;2023-07-13T15:12:59;40.43;;;6.07;;
20970;SDS011;10644;48.834;10.088;2023-07-13T15:15:30;33.57;;;4.90;;
20970;SDS011;10644;48.834;10.088;2023-07-13T15:17:58;27.37;;;7.90;;
20970;SDS011;10644;48.834;10.088;2023-07-13T15:20:26;30.83;;;3.97;;
20970;SDS011;10644;48.834;10.088;2023-07-13T15:22:53;30.40;;;4.30;;